TAF and METAR

Decoding for American and Canadian METARs and TAFs is not fully implemented.

Could not understand the following METAR

PAEI 290456Z AUTO 00000KT 10SM OVC060 06/05 A2977 RMK AO2 RAB00E34RAB41E49 SLP090 P0000 T00610051 $

TAF for Eielson Air Force Base

TAF PAEI 282215Z 2822/3004 17004KT 9999 SCT050 BKN100 QNH2957INS BECMG 2902/2903 16004KT 9999 VCSH FEW010 BKN040 610401 620509 QNH2960INS TEMPO 2903/2909 6000 -RA BR SCT005 OVC020 BECMG 2914/2915 VRB03KT 4000 BR SCT005 OVC020 620457 QNH2999INS BECMG 2918/2919 10004KT 9999 NSW FEW020 BKN080 620804 QNH3003INS BECMG 2923/2924 10005KT 9999 SCT100 QNH3000INS TX12/3000Z TN02/2914Z
Report created 29. sep 00:15

between 29. sep 00:00 - 30. sep 06:00

wind 4 knots from S (170°) visibility > 10km scattered clouds (~50% cover) at 5000 feet broken clouds (~75% cover) at 10000 feet
Eielson Air Force Base in United States of America at 167m

Latest 5 airports